Terminal Aerodrome Forecast
Issued by NWS

Current Version | Previous Version | Text Only | Print | Product List | Glossary Off
Versions: 1 2 3 4 5 6 7 8 9 10 11 12 13 14 15 16 17 18 19 20 21 22 23 24 25

000
FTUS41 KPBZ 011100 CCA
TAFHLG
TAF COR
KHLG 011145Z 0112/0212 21004KT P6SM SCT010 OVC014
      TEMPO 0112/0114 1SM -SHRA BR BKN010 OVC014
     FM011500 23005KT P6SM OVC025
     FM011700 23008KT P6SM BKN040
     FM021000 24006KT P6SM VCSH BKN035=

USA.gov is the U.S. government's official web portal to all federal, state and local government web resources and services.